createdAt,value
2023-03-02T00:01:49.384Z,37.10
2023-03-02T00:04:22.685Z,37.70
2023-03-02T00:06:53.501Z,36.70
2023-03-02T00:09:22.026Z,37.40
2023-03-02T00:11:51.522Z,36.60
2023-03-02T00:14:20.030Z,38.30
2023-03-02T00:16:48.219Z,38.30
2023-03-02T00:19:16.390Z,38.40
2023-03-02T00:21:44.737Z,39.20
2023-03-02T00:24:14.919Z,36.50
2023-03-02T00:26:43.227Z,36.80
2023-03-02T00:29:11.624Z,38.30
2023-03-02T00:31:39.968Z,38.20
2023-03-02T00:34:08.129Z,37.00
2023-03-02T00:36:36.383Z,51.50
2023-03-02T00:39:04.868Z,44.60
2023-03-02T00:41:32.978Z,40.20
2023-03-02T00:44:02.318Z,37.90
2023-03-02T00:46:31.008Z,36.50
2023-03-02T00:49:00.368Z,37.80
2023-03-02T00:51:28.661Z,36.40
2023-03-02T00:53:56.726Z,34.90
2023-03-02T00:56:25.262Z,34.90
2023-03-02T00:58:55.071Z,35.90
2023-03-02T01:01:24.572Z,34.80
2023-03-02T01:03:55.012Z,37.20
2023-03-02T01:06:23.081Z,38.30
2023-03-02T01:08:52.395Z,35.80
2023-03-02T01:11:22.581Z,35.40
2023-03-02T01:13:52.392Z,37.70
2023-03-02T01:16:21.614Z,34.50
2023-03-02T01:18:51.345Z,36.70
2023-03-02T01:21:19.405Z,37.80
2023-03-02T01:23:48.854Z,38.40
2023-03-02T01:26:17.069Z,38.10
2023-03-02T01:28:45.361Z,41.00
2023-03-02T01:31:14.324Z,37.60
2023-03-02T01:33:42.682Z,40.70
2023-03-02T01:36:14.206Z,39.60
2023-03-02T01:38:42.397Z,39.80
2023-03-02T01:41:10.878Z,38.80
2023-03-02T01:43:39.319Z,36.30
2023-03-02T01:46:13.362Z,36.40
2023-03-02T01:48:48.763Z,35.00
2023-03-02T01:51:23.043Z,34.30
2023-03-02T01:53:55.667Z,31.20
2023-03-02T01:56:28.146Z,29.80
2023-03-02T01:59:01.428Z,29.20
2023-03-02T02:01:31.978Z,27.90
2023-03-02T02:04:02.286Z,25.30
2023-03-02T02:06:36.881Z,26.90
2023-03-02T02:09:08.121Z,23.40
2023-03-02T02:11:37.141Z,25.20
2023-03-02T02:14:06.316Z,27.20
2023-03-02T02:16:36.550Z,24.50
2023-03-02T02:19:14.165Z,25.00
2023-03-02T02:21:42.382Z,24.80
2023-03-02T02:24:16.306Z,24.30
2023-03-02T02:26:48.490Z,23.90
2023-03-02T02:29:22.228Z,23.30
2023-03-02T02:31:56.326Z,24.00
2023-03-02T02:34:30.860Z,25.70
2023-03-02T02:37:06.315Z,22.40
2023-03-02T02:42:11.482Z,22.50
2023-03-02T02:44:39.860Z,23.10
2023-03-02T02:47:16.892Z,22.80
2023-03-02T02:49:46.291Z,25.20
2023-03-02T02:52:17.187Z,23.20
2023-03-02T02:54:47.988Z,23.00
2023-03-02T02:57:18.276Z,25.70
2023-03-02T02:59:50.398Z,23.90
2023-03-02T03:02:22.186Z,24.10
2023-03-02T03:04:51.418Z,22.30
2023-03-02T03:07:23.108Z,22.70
2023-03-02T03:09:59.468Z,24.10
2023-03-02T03:12:31.760Z,21.70
2023-03-02T03:15:01.178Z,22.10
2023-03-02T03:17:30.581Z,22.20
2023-03-02T03:20:05.827Z,21.50
2023-03-02T03:22:37.896Z,20.80
2023-03-02T03:25:17.981Z,22.80
2023-03-02T03:27:53.627Z,20.60
2023-03-02T03:30:22.450Z,20.80
2023-03-02T03:32:51.053Z,22.90
2023-03-02T03:35:19.570Z,21.70
2023-03-02T03:37:48.919Z,22.60
2023-03-02T03:40:17.909Z,23.30
2023-03-02T03:42:46.700Z,22.20
2023-03-02T03:45:15.316Z,22.70
2023-03-02T03:47:44.687Z,21.10
2023-03-02T03:50:13.344Z,22.20
2023-03-02T03:52:41.937Z,21.20
2023-03-02T03:55:20.656Z,21.70
2023-03-02T03:57:49.871Z,21.20
2023-03-02T04:00:19.752Z,22.20
2023-03-02T04:02:51.008Z,21.30
2023-03-02T04:05:20.111Z,22.20
2023-03-02T04:07:51.824Z,22.00
2023-03-02T04:10:20.661Z,21.50
2023-03-02T04:12:49.566Z,20.60
2023-03-02T04:15:18.087Z,21.60
2023-03-02T04:17:48.231Z,22.10
2023-03-02T04:20:20.751Z,21.70
2023-03-02T04:22:54.073Z,22.30
2023-03-02T04:25:24.997Z,22.10
2023-03-02T04:27:56.174Z,20.80
2023-03-02T04:30:28.433Z,21.20
2023-03-02T04:32:57.224Z,22.30
2023-03-02T04:35:26.802Z,22.10
2023-03-02T04:37:55.129Z,22.80
2023-03-02T04:40:23.796Z,24.10
2023-03-02T04:42:52.019Z,30.00
2023-03-02T04:45:21.430Z,22.90
2023-03-02T04:47:49.645Z,21.30
2023-03-02T04:50:17.857Z,22.60
2023-03-02T04:52:46.142Z,23.80
2023-03-02T04:55:20.899Z,21.60
2023-03-02T04:57:49.284Z,21.70
2023-03-02T05:00:18.764Z,22.50
2023-03-02T05:02:47.313Z,22.50
2023-03-02T05:05:18.598Z,21.50
2023-03-02T05:07:47.274Z,21.80
2023-03-02T05:10:17.120Z,23.20
2023-03-02T05:12:57.329Z,24.80
2023-03-02T05:19:07.320Z,23.00
2023-03-02T05:21:38.394Z,23.40
2023-03-02T05:24:07.812Z,23.20
2023-03-02T05:26:39.018Z,22.90
2023-03-02T05:29:11.000Z,22.10
2023-03-02T05:31:42.494Z,22.00
2023-03-02T05:34:13.858Z,22.00
2023-03-02T05:36:42.865Z,22.50
2023-03-02T05:39:14.893Z,22.20
2023-03-02T05:41:43.594Z,20.60
2023-03-02T05:44:17.165Z,22.20
2023-03-02T05:46:45.489Z,22.90
2023-03-02T05:49:13.840Z,21.30
2023-03-02T05:51:42.127Z,22.20
2023-03-02T05:54:10.341Z,22.90
2023-03-02T05:56:42.144Z,23.30
2023-03-02T05:59:10.407Z,23.40
2023-03-02T06:01:38.732Z,22.30
2023-03-02T06:04:06.938Z,25.50
2023-03-02T06:06:35.604Z,22.20
2023-03-02T06:09:04.459Z,24.30
2023-03-02T06:11:32.854Z,25.20
2023-03-02T06:14:01.189Z,23.60
2023-03-02T06:16:31.435Z,24.00
2023-03-02T06:22:06.120Z,23.80
2023-03-02T06:24:34.567Z,25.10
2023-03-02T06:27:02.841Z,30.00
2023-03-02T06:29:31.142Z,28.60
2023-03-02T06:31:59.487Z,27.20
2023-03-02T06:34:28.804Z,26.90
2023-03-02T06:36:57.052Z,25.80
2023-03-02T06:39:25.286Z,28.20
2023-03-02T06:41:53.784Z,26.90
2023-03-02T06:44:21.973Z,26.00
2023-03-02T06:46:50.221Z,28.00
2023-03-02T06:49:18.441Z,29.30
2023-03-02T06:52:13.925Z,27.50
2023-03-02T06:54:42.513Z,27.40
2023-03-02T06:57:21.698Z,27.20
2023-03-02T06:59:53.071Z,26.80
2023-03-02T07:02:23.682Z,27.10
2023-03-02T07:04:52.029Z,25.10
2023-03-02T07:07:20.221Z,27.80
2023-03-02T07:09:48.512Z,26.40
2023-03-02T07:12:30.936Z,27.30
2023-03-02T07:14:59.215Z,26.10
2023-03-02T07:17:53.635Z,26.00
2023-03-02T07:20:22.162Z,27.10
2023-03-02T07:22:50.267Z,25.50
2023-03-02T07:25:18.714Z,26.00
2023-03-02T07:27:47.100Z,27.90
2023-03-02T07:30:15.465Z,26.60
2023-03-02T07:32:43.710Z,29.00
2023-03-02T07:35:11.929Z,29.70
2023-03-02T07:37:40.301Z,30.90
2023-03-02T07:40:12.509Z,34.00
2023-03-02T07:42:41.016Z,32.00
2023-03-02T07:45:14.868Z,34.00
2023-03-02T07:47:43.183Z,32.70
2023-03-02T07:50:12.529Z,33.10
2023-03-02T07:52:40.739Z,33.90
2023-03-02T07:55:10.492Z,33.70
2023-03-02T07:57:38.784Z,34.10
2023-03-02T08:00:13.837Z,32.80
2023-03-02T08:02:42.940Z,32.60
2023-03-02T08:05:12.713Z,30.90
2023-03-02T08:07:41.681Z,31.10
2023-03-02T08:10:12.242Z,31.20
2023-03-02T08:12:42.287Z,32.40
2023-03-02T08:15:12.300Z,35.60
2023-03-02T08:17:40.568Z,35.00
2023-03-02T08:20:10.866Z,35.70
2023-03-02T08:22:41.593Z,32.60
2023-03-02T08:25:10.124Z,31.40
2023-03-02T08:27:39.710Z,33.00
2023-03-02T08:30:10.508Z,31.50
2023-03-02T08:32:39.776Z,31.90
2023-03-02T08:35:09.593Z,30.80
2023-03-02T08:37:37.801Z,30.30
2023-03-02T08:40:08.659Z,30.00
2023-03-02T08:42:36.978Z,26.00
2023-03-02T08:45:07.586Z,26.70
2023-03-02T08:47:35.855Z,27.90
2023-03-02T08:50:04.744Z,31.60
2023-03-02T08:52:35.429Z,32.50
2023-03-02T08:55:04.989Z,30.70
2023-03-02T08:57:34.295Z,30.60
2023-03-02T09:00:03.270Z,28.70
2023-03-02T09:02:31.699Z,29.40
2023-03-02T09:05:00.021Z,27.30
2023-03-02T09:07:29.952Z,26.20
2023-03-02T09:09:58.241Z,25.10
2023-03-02T09:12:26.573Z,24.20
2023-03-02T09:14:54.833Z,21.40
2023-03-02T09:17:23.054Z,22.00
2023-03-02T09:19:51.252Z,24.60
2023-03-02T09:22:19.436Z,26.40
2023-03-02T09:24:47.648Z,27.50
2023-03-02T09:27:16.488Z,26.70
2023-03-02T09:29:44.639Z,22.10
2023-03-02T09:32:15.336Z,20.00
2023-03-02T09:34:43.680Z,19.10
2023-03-02T09:37:12.084Z,17.40
2023-03-02T09:39:40.480Z,16.40
2023-03-02T09:42:48.172Z,17.60
2023-03-02T09:45:30.826Z,16.70
2023-03-02T09:48:13.043Z,18.30
2023-03-02T09:50:51.874Z,17.20
2023-03-02T09:53:47.278Z,16.30
2023-03-02T09:56:19.024Z,14.20
2023-03-02T09:58:53.875Z,17.10
2023-03-02T10:01:34.383Z,15.30
2023-03-02T10:04:14.149Z,12.20
2023-03-02T10:06:42.676Z,12.00
2023-03-02T10:09:11.429Z,12.80
2023-03-02T10:11:50.310Z,12.90
2023-03-02T10:14:25.594Z,11.30
2023-03-02T10:17:04.020Z,10.30
2023-03-02T10:19:41.739Z,9.40
2023-03-02T10:22:17.874Z,8.00
2023-03-02T10:24:52.375Z,9.20
2023-03-02T10:27:28.952Z,8.20
2023-03-02T10:30:03.205Z,7.90
2023-03-02T10:32:37.094Z,8.90
2023-03-02T10:35:13.967Z,8.30
2023-03-02T10:37:42.440Z,9.10
2023-03-02T10:40:30.031Z,8.40
2023-03-02T10:42:59.357Z,7.00
2023-03-02T10:45:30.725Z,7.60
2023-03-02T10:48:04.215Z,7.90
2023-03-02T10:50:32.870Z,8.30
2023-03-02T10:53:04.124Z,7.90
2023-03-02T10:55:35.141Z,7.20
2023-03-02T10:58:21.683Z,8.50
2023-03-02T11:01:01.346Z,8.30
2023-03-02T11:03:33.242Z,9.50
2023-03-02T11:06:17.648Z,9.50
2023-03-02T11:08:46.324Z,9.60
2023-03-02T11:11:23.596Z,10.20
2023-03-02T11:13:52.465Z,9.50
2023-03-02T11:16:28.299Z,9.60
2023-03-02T11:19:01.492Z,9.10
2023-03-02T11:21:35.146Z,14.90
2023-03-02T11:24:10.748Z,9.70
2023-03-02T11:26:45.577Z,7.70
2023-03-02T11:29:27.186Z,8.30
2023-03-02T11:31:58.623Z,7.90
2023-03-02T11:34:33.167Z,7.90
2023-03-02T11:37:12.988Z,7.40
2023-03-02T11:40:01.162Z,7.30
2023-03-02T11:42:33.510Z,6.80
2023-03-02T11:45:08.664Z,7.80
2023-03-02T11:47:38.044Z,6.80
2023-03-02T11:50:11.575Z,8.50
2023-03-02T11:52:45.136Z,9.10
2023-03-02T11:55:21.940Z,9.00
2023-03-02T11:57:54.053Z,8.30
2023-03-02T12:00:30.916Z,9.70
2023-03-02T12:03:02.572Z,8.20
2023-03-02T12:05:35.152Z,9.40
2023-03-02T12:08:06.703Z,10.30
2023-03-02T12:10:39.950Z,9.60
2023-03-02T12:13:19.506Z,10.10
2023-03-02T12:15:50.074Z,9.20
2023-03-02T12:18:43.530Z,9.40
2023-03-02T12:21:14.448Z,10.40
2023-03-02T12:23:57.597Z,15.00
2023-03-02T12:26:31.481Z,13.00
2023-03-02T12:29:23.741Z,12.10
2023-03-02T12:31:54.902Z,11.20
2023-03-02T12:34:33.143Z,11.60
2023-03-02T12:37:05.932Z,23.20
2023-03-02T12:40:03.287Z,10.30
2023-03-02T12:42:52.486Z,10.00
2023-03-02T12:45:41.699Z,10.20
2023-03-02T12:48:28.000Z,9.10
2023-03-02T12:51:01.092Z,9.50
2023-03-02T12:53:30.499Z,9.90
2023-03-02T12:56:11.678Z,9.40
2023-03-02T12:58:40.117Z,9.20
2023-03-02T13:01:20.092Z,10.10
2023-03-02T13:03:52.710Z,9.50
2023-03-02T13:06:25.107Z,9.10
2023-03-02T13:09:00.805Z,9.70
2023-03-02T13:11:33.229Z,9.60
2023-03-02T13:14:17.385Z,9.70
2023-03-02T13:16:55.089Z,10.00
2023-03-02T13:19:24.422Z,11.30
2023-03-02T13:21:53.222Z,10.10
2023-03-02T13:24:46.146Z,9.70
2023-03-02T13:27:52.033Z,10.80
2023-03-02T13:30:27.018Z,9.80
2023-03-02T13:38:24.343Z,9.90
2023-03-02T13:41:25.693Z,11.20
2023-03-02T13:43:56.936Z,9.40
2023-03-02T13:46:39.188Z,10.60
2023-03-02T13:49:37.042Z,10.20
2023-03-02T13:52:27.682Z,10.20
2023-03-02T13:54:58.691Z,10.20
2023-03-02T13:57:32.477Z,10.70
2023-03-02T14:00:05.459Z,10.20
2023-03-02T14:02:36.247Z,9.70
2023-03-02T14:05:11.299Z,10.70
2023-03-02T14:07:42.261Z,11.00
2023-03-02T14:10:15.816Z,11.10
2023-03-02T14:12:54.649Z,10.90
2023-03-02T14:15:26.081Z,10.00
2023-03-02T14:18:34.029Z,9.00
2023-03-02T14:21:05.237Z,10.90
2023-03-02T14:23:36.310Z,10.20
2023-03-02T14:26:20.528Z,9.60
2023-03-02T14:29:04.682Z,9.50
2023-03-02T14:31:38.481Z,10.40
2023-03-02T14:34:15.131Z,10.40
2023-03-02T14:36:48.129Z,10.10
2023-03-02T14:39:52.008Z,9.50
2023-03-02T14:43:30.813Z,9.60
2023-03-02T14:46:01.708Z,11.10
2023-03-02T14:49:11.970Z,10.80
2023-03-02T14:52:30.161Z,10.30
2023-03-02T14:55:29.755Z,10.10
2023-03-02T14:58:06.608Z,10.20
2023-03-02T15:00:37.745Z,11.40
2023-03-02T15:03:10.738Z,11.20
2023-03-02T15:05:44.211Z,11.00
2023-03-02T15:08:20.138Z,10.40
2023-03-02T15:10:52.118Z,12.00
2023-03-02T15:13:22.991Z,10.80
2023-03-02T15:15:53.959Z,11.20
2023-03-02T15:18:25.099Z,10.20
2023-03-02T15:20:56.243Z,9.70
2023-03-02T15:23:27.384Z,10.20
2023-03-02T15:26:02.830Z,12.10
2023-03-02T15:28:34.009Z,11.20
2023-03-02T15:31:14.259Z,11.30
2023-03-02T15:33:46.382Z,11.10
2023-03-02T15:36:18.181Z,11.20
2023-03-02T15:38:51.717Z,11.80
2023-03-02T15:41:22.813Z,10.60
2023-03-02T15:43:54.992Z,11.90
2023-03-02T15:46:27.345Z,11.10
2023-03-02T15:48:58.465Z,11.70
2023-03-02T15:51:29.568Z,11.80
2023-03-02T15:54:00.876Z,12.30
2023-03-02T15:56:42.423Z,11.30
2023-03-02T15:59:15.086Z,12.70
2023-03-02T16:01:46.360Z,12.70
2023-03-02T16:04:17.450Z,12.90
2023-03-02T16:06:51.228Z,11.90
2023-03-02T16:09:23.919Z,13.10
2023-03-02T16:12:00.195Z,13.80
2023-03-02T16:14:31.138Z,14.30
2023-03-02T16:17:02.981Z,12.80
2023-03-02T16:19:34.361Z,13.20
2023-03-02T16:22:05.427Z,13.50
2023-03-02T16:24:38.321Z,13.60
2023-03-02T16:27:10.313Z,12.90
2023-03-02T16:29:48.426Z,13.30
2023-03-02T16:32:30.265Z,12.50
2023-03-02T16:35:01.500Z,12.80
2023-03-02T16:37:32.779Z,12.40
2023-03-02T16:40:03.786Z,12.30
2023-03-02T16:42:35.662Z,14.00
2023-03-02T16:45:11.153Z,13.60
2023-03-02T16:47:42.259Z,13.00
2023-03-02T16:50:14.926Z,13.90
2023-03-02T16:52:45.905Z,13.00
2023-03-02T16:55:21.293Z,14.40
2023-03-02T16:57:52.225Z,15.20
2023-03-02T17:00:25.409Z,13.80
2023-03-02T17:02:56.403Z,13.40
2023-03-02T17:05:27.531Z,14.90
2023-03-02T17:08:00.174Z,14.30
2023-03-02T17:10:31.490Z,13.30
2023-03-02T17:13:05.786Z,14.20
2023-03-02T17:15:36.966Z,16.10
2023-03-02T17:18:09.513Z,15.00
2023-03-02T17:20:41.181Z,15.80
2023-03-02T17:23:14.656Z,15.30
2023-03-02T17:25:45.935Z,16.20
2023-03-02T17:28:27.492Z,16.80
2023-03-02T17:30:58.497Z,21.00
2023-03-02T17:33:31.112Z,17.70
2023-03-02T17:36:17.627Z,18.70
2023-03-02T17:38:49.004Z,17.60
2023-03-02T17:41:23.517Z,17.40
2023-03-02T17:44:06.920Z,17.20
2023-03-02T17:46:38.016Z,17.10
2023-03-02T17:49:08.850Z,18.80
2023-03-02T17:51:40.766Z,17.40
2023-03-02T17:54:21.384Z,19.60
2023-03-02T17:56:52.865Z,16.80
2023-03-02T17:59:24.208Z,19.10
2023-03-02T18:01:55.922Z,18.90
2023-03-02T18:04:29.716Z,17.30
2023-03-02T18:07:01.904Z,18.70
2023-03-02T18:09:35.411Z,17.20
2023-03-02T18:12:08.729Z,19.60
2023-03-02T18:14:41.666Z,21.20
2023-03-02T18:17:40.478Z,21.10
2023-03-02T18:20:21.105Z,22.20
2023-03-02T18:22:52.463Z,25.20
2023-03-02T18:25:23.993Z,27.50
2023-03-02T18:27:55.325Z,26.60
2023-03-02T18:30:26.459Z,49.90
2023-03-02T18:32:57.546Z,32.10
2023-03-02T18:35:44.765Z,29.60
2023-03-02T18:38:15.855Z,27.10
2023-03-02T18:40:49.971Z,26.00
2023-03-02T18:43:20.843Z,28.30
2023-03-02T18:46:05.124Z,25.90
2023-03-02T18:48:37.564Z,27.50
2023-03-02T18:51:08.495Z,28.90
2023-03-02T18:53:41.471Z,30.20
2023-03-02T18:56:12.928Z,29.70
2023-03-02T18:58:44.579Z,30.50
2023-03-02T19:01:19.270Z,30.30
2023-03-02T19:03:57.842Z,26.50
2023-03-02T19:07:25.059Z,28.60
2023-03-02T19:10:44.691Z,31.00
2023-03-02T19:13:39.283Z,29.90
2023-03-02T19:16:10.981Z,30.80
2023-03-02T19:18:56.065Z,29.30
2023-03-02T19:21:28.205Z,31.70
2023-03-02T19:24:02.193Z,34.20
2023-03-02T19:26:33.128Z,36.90
2023-03-02T19:29:06.585Z,35.30
2023-03-02T19:31:40.570Z,41.20
2023-03-02T19:34:11.645Z,37.00
2023-03-02T19:36:42.932Z,37.50
2023-03-02T19:39:14.124Z,40.80
2023-03-02T19:41:45.655Z,45.40
2023-03-02T19:51:28.872Z,41.50
2023-03-02T19:54:03.103Z,43.20
2023-03-02T19:56:39.806Z,43.60
2023-03-02T19:59:11.321Z,44.50
2023-03-02T20:01:42.861Z,43.90
2023-03-02T20:04:13.900Z,49.50
2023-03-02T20:06:45.483Z,86.00
2023-03-02T20:09:19.792Z,56.70
2023-03-02T20:11:50.765Z,44.70
2023-03-02T20:14:33.480Z,42.80
2023-03-02T20:17:05.437Z,40.00
2023-03-02T20:19:36.614Z,42.20
2023-03-02T20:22:09.585Z,43.10
2023-03-02T20:24:41.668Z,44.70
2023-03-02T20:27:16.494Z,45.10
2023-03-02T20:29:49.095Z,47.30
2023-03-02T20:32:19.979Z,42.80
2023-03-02T20:34:52.089Z,43.60
2023-03-02T20:37:25.879Z,41.90
2023-03-02T20:39:56.997Z,51.30
2023-03-02T20:42:31.208Z,54.50
2023-03-02T20:45:03.249Z,45.00
2023-03-02T20:47:34.603Z,41.50
2023-03-02T20:50:09.784Z,40.70
2023-03-02T20:55:12.264Z,39.30
2023-03-02T20:57:43.229Z,41.00
2023-03-02T21:00:20.815Z,39.10
2023-03-02T21:02:52.603Z,37.50
2023-03-02T21:05:26.451Z,38.60
2023-03-02T21:07:57.957Z,39.30
2023-03-02T21:10:38.357Z,43.20
2023-03-02T21:13:12.010Z,48.00
2023-03-02T21:15:46.435Z,49.10
2023-03-02T21:18:19.310Z,47.10
2023-03-02T21:20:50.220Z,45.80
2023-03-02T21:23:21.822Z,44.50
2023-03-02T21:25:52.744Z,44.40
2023-03-02T21:28:24.263Z,43.30
2023-03-02T21:31:08.271Z,47.50
2023-03-02T21:33:39.485Z,43.40
2023-03-02T21:36:16.089Z,43.30
2023-03-02T21:38:47.200Z,43.30
2023-03-02T21:41:18.597Z,43.70
2023-03-02T21:43:50.027Z,42.70
2023-03-02T21:46:23.566Z,44.00
2023-03-02T21:48:55.410Z,41.40
2023-03-02T21:51:27.352Z,42.10
2023-03-02T21:54:00.197Z,44.40
2023-03-02T21:56:35.134Z,45.00
2023-03-02T21:59:08.157Z,42.80
2023-03-02T22:01:39.420Z,45.80
2023-03-02T22:04:13.230Z,47.70
2023-03-02T22:06:47.632Z,47.70
2023-03-02T22:09:26.432Z,45.40
2023-03-02T22:12:52.585Z,43.50
2023-03-02T22:15:28.337Z,43.20
2023-03-02T22:18:01.956Z,44.90
2023-03-02T22:20:33.085Z,44.70
2023-03-02T22:23:14.297Z,42.90
2023-03-02T22:25:48.018Z,45.10
2023-03-02T22:28:21.360Z,43.50
2023-03-02T22:30:54.436Z,44.30
2023-03-02T22:33:29.121Z,43.90
2023-03-02T22:36:12.716Z,42.80
2023-03-02T22:38:43.586Z,44.10
2023-03-02T22:41:20.999Z,43.40
2023-03-02T22:43:53.139Z,45.10
2023-03-02T22:46:26.919Z,48.40
2023-03-02T22:49:45.173Z,49.20
2023-03-02T22:52:21.027Z,45.60
2023-03-02T22:54:57.308Z,43.50
2023-03-02T22:57:36.740Z,47.40
2023-03-02T23:00:35.968Z,46.80
2023-03-02T23:03:17.650Z,43.70
2023-03-02T23:09:32.541Z,43.90
2023-03-02T23:12:07.155Z,44.90
2023-03-02T23:12:34.842Z,45.10
2023-03-02T23:14:52.009Z,44.40
2023-03-02T23:17:39.606Z,44.50
2023-03-02T23:20:15.628Z,44.30
2023-03-02T23:26:00.924Z,47.20
2023-03-02T23:28:32.095Z,49.30
2023-03-02T23:31:02.874Z,49.20
2023-03-02T23:33:34.971Z,44.20
2023-03-02T23:36:07.781Z,40.90
2023-03-02T23:38:39.140Z,42.90
2023-03-02T23:41:10.334Z,43.00
2023-03-02T23:43:41.601Z,41.60
2023-03-02T23:46:14.430Z,39.20
2023-03-02T23:48:45.994Z,40.50
2023-03-02T23:51:17.077Z,40.10
2023-03-02T23:53:48.076Z,40.60
2023-03-02T23:56:20.052Z,38.10
2023-03-02T23:58:51.111Z,37.30
